Terminal Aerodrome Forecast
Issued by NWS

Home | Current Version | Previous Version | Text Only | Print | Product List | Glossary Off
Versions: 1 2 3 4 5 6 7 8 9 10 11 12 13 14 15 16 17 18

000
FTUS43 KABR 061128
TAFATY
TAF
KATY 061128Z 0612/0712 16009KT P6SM SKC WS015/24045KT
     FM061500 18010KT P6SM FEW250
     FM061800 24014KT P6SM SCT050
     FM062200 30013KT P6SM SCT250
     FM070100 01012KT P6SM SCT250=

USA.gov is the U.S. government's official web portal to all federal, state and local government web resources and services.